Time;durP1;ratioP1;P1;durP2;ratioP2;P2;SDS_P1;SDS_P2;PMS_P1;PMS_P2;Temp;Humidity;BMP_temperature;BMP_pressure;BME280_temperature;BME280_humidity;BME280_pressure;Samples;Min_cycle;Max_cycle;Signal;HPM_P1;HPM_P2
2021/03/30 00:00:34;;;;;;;30.63;17.10;;;;;;;;;;4994422;28;20100;-71
2021/03/30 00:03:00;;;;;;;32.33;17.70;;;;;;;;;;4977030;28;20041;-66
2021/03/30 00:05:26;;;;;;;32.72;18.70;;;;;;;;;;4994253;28;20113;-72
2021/03/30 00:07:52;;;;;;;30.65;17.90;;;;;;;;;;4991183;28;20023;-74
2021/03/30 00:10:22;;;;;;;33.55;18.92;;;;;;;;;;4994394;28;20026;-74
2021/03/30 00:12:48;;;;;;;30.15;17.50;;;;;;;;;;4992775;28;20057;-74
2021/03/30 00:15:14;;;;;;;34.33;20.08;;;;;;;;;;4993874;28;20018;-73
2021/03/30 00:17:40;;;;;;;38.53;21.98;;;;;;;;;;4999278;28;20472;-74
2021/03/30 00:20:10;;;;;;;38.92;22.00;;;;;;;;;;4997815;28;20065;-71
2021/03/30 00:22:36;;;;;;;34.33;22.58;;;;;;;;;;4998467;28;20097;-65
2021/03/30 00:25:02;;;;;;;38.22;22.52;;;;;;;;;;4997454;28;20033;-66
2021/03/30 00:27:28;;;;;;;38.08;21.08;;;;;;;;;;4993572;28;20030;-72
2021/03/30 00:29:54;;;;;;;31.98;21.10;;;;;;;;;;4993722;28;20026;-66
2021/03/30 00:32:20;;;;;;;29.83;18.73;;;;;;;;;;4993632;28;20113;-71
2021/03/30 00:34:46;;;;;;;29.48;18.35;;;;;;;;;;4993855;28;20554;-71
2021/03/30 00:37:12;;;;;;;28.30;16.60;;;;;;;;;;4992402;28;20488;-73
2021/03/30 00:39:38;;;;;;;26.38;17.35;;;;;;;;;;4993528;28;20022;-74
2021/03/30 00:42:04;;;;;;;31.40;17.98;;;;;;;;;;4993676;28;20049;-73
2021/03/30 00:44:30;;;;;;;28.88;18.02;;;;;;;;;;4993175;28;20054;-73
2021/03/30 00:46:57;;;;;;;31.77;18.35;;;;;;;;;;4993248;28;20061;-71
2021/03/30 00:49:23;;;;;;;28.77;16.63;;;;;;;;;;4993095;28;20376;-73
2021/03/30 00:51:49;;;;;;;29.27;15.98;;;;;;;;;;4993694;28;20065;-73
2021/03/30 00:54:16;;;;;;;26.77;16.40;;;;;;;;;;4993118;28;20022;-74
2021/03/30 00:56:43;;;;;;;28.85;16.08;;;;;;;;;;4993339;28;20037;-73
2021/03/30 00:59:09;;;;;;;24.10;15.32;;;;;;;;;;4993206;28;20061;-71
2021/03/30 01:01:35;;;;;;;28.70;15.70;;;;;;;;;;4993388;28;20026;-67
2021/03/30 01:04:01;;;;;;;29.27;15.65;;;;;;;;;;4993227;28;20110;-71
2021/03/30 01:06:27;;;;;;;27.20;16.60;;;;;;;;;;4992912;28;20022;-71
2021/03/30 01:09:12;;;;;;;32.15;17.20;;;;;;;;;;4993182;28;20077;-71
2021/03/30 01:11:51;;;;;;;23.90;14.68;;;;;;;;;;4992776;28;20432;-72
2021/03/30 01:14:33;;;;;;;24.05;15.52;;;;;;;;;;4993344;28;20057;-72
2021/03/30 01:17:08;;;;;;;21.98;14.82;;;;;;;;;;4992977;28;20028;-72
2021/03/30 01:19:43;;;;;;;26.90;16.48;;;;;;;;;;4993146;28;20085;-73
2021/03/30 01:22:28;;;;;;;32.50;17.95;;;;;;;;;;4991635;28;20033;-74
2021/03/30 01:24:58;;;;;;;28.60;16.13;;;;;;;;;;4992506;28;20058;-72
2021/03/30 01:27:27;;;;;;;25.33;16.75;;;;;;;;;;4992545;28;20031;-70
2021/03/30 01:29:54;;;;;;;27.92;16.45;;;;;;;;;;4992649;28;20385;-73
2021/03/30 01:32:41;;;;;;;35.03;19.48;;;;;;;;;;4992812;28;20022;-73
2021/03/30 01:35:15;;;;;;;29.40;16.98;;;;;;;;;;4992463;28;20053;-71
2021/03/30 01:37:46;;;;;;;26.48;16.25;;;;;;;;;;4992569;28;20366;-73
2021/03/30 01:40:14;;;;;;;31.88;17.70;;;;;;;;;;4992748;28;20377;-71
2021/03/30 01:42:41;;;;;;;35.47;17.73;;;;;;;;;;4993038;28;20030;-71
2021/03/30 01:45:08;;;;;;;27.75;16.95;;;;;;;;;;4992469;28;20484;-73
2021/03/30 01:47:36;;;;;;;29.58;16.77;;;;;;;;;;4978874;28;20093;-73
2021/03/30 01:50:03;;;;;;;26.25;16.75;;;;;;;;;;4992860;28;20153;-72
2021/03/30 01:52:29;;;;;;;25.50;15.82;;;;;;;;;;4991414;28;20038;-74
2021/03/30 01:54:56;;;;;;;32.50;18.00;;;;;;;;;;4992796;28;20030;-74
2021/03/30 01:57:25;;;;;;;30.75;17.73;;;;;;;;;;4992897;28;20026;-70
2021/03/30 01:59:50;;;;;;;;;;;;;;;;;;4993011;28;20027;-73
2021/03/30 02:02:17;;;;;;;29.48;16.25;;;;;;;;;;4992908;28;19928;-75
2021/03/30 02:04:43;;;;;;;27.70;15.73;;;;;;;;;;4992348;28;20026;-74
2021/03/30 02:07:10;;;;;;;31.92;16.88;;;;;;;;;;4992849;28;20559;-74
2021/03/30 02:09:41;;;;;;;24.58;16.10;;;;;;;;;;4992611;28;20138;-74
2021/03/30 02:12:16;;;;;;;28.60;16.30;;;;;;;;;;4993298;28;20129;-69
2021/03/30 02:14:43;;;;;;;27.92;18.00;;;;;;;;;;4988124;28;20500;-71
2021/03/30 02:17:28;;;;;;;31.77;18.02;;;;;;;;;;4991035;28;20042;-72
2021/03/30 02:19:57;;;;;;;31.13;16.73;;;;;;;;;;4992045;28;20139;-70
2021/03/30 02:22:26;;;;;;;34.65;17.50;;;;;;;;;;4992653;28;20097;-73
2021/03/30 02:24:53;;;;;;;31.80;17.58;;;;;;;;;;4992298;28;20018;-71
2021/03/30 02:27:20;;;;;;;31.40;16.92;;;;;;;;;;4992355;28;20488;-69
2021/03/30 02:29:48;;;;;;;33.95;18.52;;;;;;;;;;4992352;28;20457;-71
2021/03/30 02:32:15;;;;;;;35.45;19.50;;;;;;;;;;4991275;28;20034;-68
2021/03/30 02:34:41;;;;;;;33.13;18.33;;;;;;;;;;4991160;28;20031;-71
2021/03/30 02:37:08;;;;;;;32.13;19.33;;;;;;;;;;4992152;28;20056;-73
2021/03/30 02:39:35;;;;;;;33.00;18.77;;;;;;;;;;4996063;28;20522;-71
2021/03/30 02:42:01;;;;;;;32.53;18.77;;;;;;;;;;4996029;28;20023;-74
2021/03/30 02:44:29;;;;;;;28.98;18.75;;;;;;;;;;4995380;28;20018;-73
2021/03/30 02:46:56;;;;;;;27.83;16.85;;;;;;;;;;4995519;28;20050;-74
2021/03/30 02:49:23;;;;;;;30.73;18.90;;;;;;;;;;4995873;28;20022;-72
2021/03/30 02:51:50;;;;;;;31.40;19.30;;;;;;;;;;4994465;28;20040;-74
2021/03/30 02:54:17;;;;;;;36.53;20.30;;;;;;;;;;4990229;28;20076;-69
2021/03/30 02:56:43;;;;;;;37.00;20.80;;;;;;;;;;4986939;28;20145;-73
2021/03/30 02:59:09;;;;;;;37.88;22.00;;;;;;;;;;4992502;28;20023;-70
2021/03/30 03:01:36;;;;;;;41.72;23.20;;;;;;;;;;4995204;28;20420;-73
2021/03/30 03:04:02;;;;;;;47.97;24.80;;;;;;;;;;4994363;28;20057;-70
2021/03/30 03:06:32;;;;;;;43.25;25.95;;;;;;;;;;4994845;28;20049;-74
2021/03/30 03:08:59;;;;;;;42.15;25.77;;;;;;;;;;4995475;28;20088;-71
2021/03/30 03:11:25;;;;;;;40.95;25.70;;;;;;;;;;4995428;28;20037;-74
2021/03/30 03:13:52;;;;;;;43.67;26.20;;;;;;;;;;4994971;28;20027;-68
2021/03/30 03:16:20;;;;;;;43.78;25.90;;;;;;;;;;4995026;28;20030;-70
2021/03/30 03:18:47;;;;;;;44.00;24.73;;;;;;;;;;4994836;28;20061;-68
2021/03/30 03:21:13;;;;;;;44.97;24.98;;;;;;;;;;4995251;28;20476;-67
2021/03/30 03:23:40;;;;;;;42.75;24.48;;;;;;;;;;4992637;28;20030;-67
2021/03/30 03:26:07;;;;;;;32.97;20.58;;;;;;;;;;4984060;28;20049;-67
2021/03/30 03:28:33;;;;;;;35.45;19.27;;;;;;;;;;4994284;28;20034;-66
2021/03/30 03:31:00;;;;;;;35.42;20.33;;;;;;;;;;4982474;28;20046;-66
2021/03/30 03:33:28;;;;;;;40.60;20.63;;;;;;;;;;4994859;28;20531;-65
2021/03/30 03:36:02;;;;;;;29.23;19.48;;;;;;;;;;4993060;28;20057;-66
2021/03/30 03:38:28;;;;;;;31.92;19.85;;;;;;;;;;4994678;28;20020;-65
2021/03/30 03:40:54;;;;;;;33.30;20.23;;;;;;;;;;4994903;28;20077;-67
2021/03/30 03:43:20;;;;;;;34.88;21.27;;;;;;;;;;4995037;28;20084;-66
2021/03/30 03:45:46;;;;;;;37.33;19.80;;;;;;;;;;4993436;28;20433;-66
2021/03/30 03:48:12;;;;;;;42.70;21.88;;;;;;;;;;4993881;28;20544;-67
2021/03/30 03:50:39;;;;;;;37.60;20.67;;;;;;;;;;4994979;28;20060;-67
2021/03/30 03:53:06;;;;;;;33.90;21.58;;;;;;;;;;4994864;28;20081;-67
2021/03/30 03:55:33;;;;;;;32.20;18.92;;;;;;;;;;4992732;28;20368;-67
2021/03/30 03:58:07;;;;;;;29.83;17.15;;;;;;;;;;4992189;28;20022;-67
2021/03/30 04:00:34;;;;;;;23.65;14.18;;;;;;;;;;4993067;28;20452;-68
2021/03/30 04:03:13;;;;;;;25.77;15.65;;;;;;;;;;4987655;28;20027;-67
2021/03/30 04:05:43;;;;;;;23.42;15.02;;;;;;;;;;4994220;28;20088;-68
2021/03/30 04:08:11;;;;;;;26.77;14.20;;;;;;;;;;4993256;28;20077;-69
2021/03/30 04:10:39;;;;;;;30.90;15.50;;;;;;;;;;4994492;28;20033;-69
2021/03/30 04:13:06;;;;;;;24.33;13.90;;;;;;;;;;4994093;28;20473;-66
2021/03/30 04:15:32;;;;;;;24.75;16.25;;;;;;;;;;4994253;28;20049;-69
2021/03/30 04:17:58;;;;;;;20.63;12.73;;;;;;;;;;4994454;28;20495;-69
2021/03/30 04:20:25;;;;;;;18.63;12.30;;;;;;;;;;4993745;28;20022;-70
2021/03/30 04:22:58;;;;;;;19.42;12.85;;;;;;;;;;4994075;28;20194;-70
2021/03/30 04:25:24;;;;;;;19.27;12.30;;;;;;;;;;4993825;28;20124;-69
2021/03/30 04:27:51;;;;;;;26.83;11.93;;;;;;;;;;4993746;28;20101;-69
2021/03/30 04:30:17;;;;;;;22.27;11.77;;;;;;;;;;4994029;28;20056;-67
2021/03/30 04:32:43;;;;;;;18.58;10.73;;;;;;;;;;4993818;28;20392;-65
2021/03/30 04:35:10;;;;;;;19.20;11.07;;;;;;;;;;4993513;28;20066;-68
2021/03/30 04:37:36;;;;;;;17.60;10.40;;;;;;;;;;4993481;28;20023;-66
2021/03/30 04:40:03;;;;;;;20.30;11.90;;;;;;;;;;4993986;28;20081;-66
2021/03/30 04:42:29;;;;;;;28.40;13.90;;;;;;;;;;4993540;28;20031;-67
2021/03/30 04:44:55;;;;;;;22.20;12.88;;;;;;;;;;4993646;28;20050;-67
2021/03/30 04:47:23;;;;;;;21.80;12.52;;;;;;;;;;4992969;28;20050;-67
2021/03/30 04:49:49;;;;;;;27.70;14.40;;;;;;;;;;4993224;28;20030;-67
2021/03/30 04:52:15;;;;;;;28.17;15.70;;;;;;;;;;4993408;28;20038;-67
2021/03/30 04:54:41;;;;;;;31.25;17.73;;;;;;;;;;4993456;28;20481;-67
2021/03/30 04:57:08;;;;;;;30.05;17.30;;;;;;;;;;4993185;28;20057;-67
2021/03/30 04:59:34;;;;;;;33.70;17.17;;;;;;;;;;4991883;28;20384;-67
2021/03/30 05:02:00;;;;;;;31.20;16.25;;;;;;;;;;4992499;28;20046;-65
2021/03/30 05:04:26;;;;;;;33.20;17.23;;;;;;;;;;4991185;28;20274;-66
2021/03/30 05:06:52;;;;;;;34.40;17.33;;;;;;;;;;4962641;28;20035;-66
2021/03/30 05:09:18;;;;;;;31.67;16.23;;;;;;;;;;4987974;28;20021;-68
2021/03/30 05:11:45;;;;;;;35.42;16.60;;;;;;;;;;4984781;28;20041;-66
2021/03/30 05:14:13;;;;;;;24.73;16.67;;;;;;;;;;4988571;28;20430;-67
2021/03/30 05:16:40;;;;;;;33.63;15.65;;;;;;;;;;4982716;28;20113;-66
2021/03/30 05:19:06;;;;;;;23.92;14.00;;;;;;;;;;4977717;28;20477;-68
2021/03/30 05:21:32;;;;;;;32.45;16.55;;;;;;;;;;4979422;28;20030;-66
2021/03/30 05:23:58;;;;;;;33.25;17.65;;;;;;;;;;4978764;28;20027;-67
2021/03/30 05:26:24;;;;;;;34.30;17.45;;;;;;;;;;4979036;28;20022;-67
2021/03/30 05:28:50;;;;;;;31.17;18.25;;;;;;;;;;4992134;28;20035;-65
2021/03/30 05:31:16;;;;;;;32.00;18.23;;;;;;;;;;4993145;28;20058;-66
2021/03/30 05:33:42;;;;;;;28.85;17.42;;;;;;;;;;4993461;28;20019;-67
2021/03/30 05:36:09;;;;;;;35.58;18.98;;;;;;;;;;4977674;28;20050;-67
2021/03/30 05:38:36;;;;;;;36.42;20.35;;;;;;;;;;4973797;28;20027;-68
2021/03/30 05:41:06;;;;;;;37.95;19.42;;;;;;;;;;4985085;28;20114;-66
2021/03/30 05:43:32;;;;;;;38.33;19.27;;;;;;;;;;4986615;28;20026;-65
2021/03/30 05:46:02;;;;;;;32.80;18.42;;;;;;;;;;4985299;28;20064;-66
2021/03/30 05:48:28;;;;;;;32.05;18.52;;;;;;;;;;4987731;28;20400;-66
2021/03/30 05:50:54;;;;;;;31.17;18.20;;;;;;;;;;4983777;28;20029;-66
2021/03/30 05:53:24;;;;;;;31.27;16.45;;;;;;;;;;4992343;28;20045;-67
2021/03/30 05:55:53;;;;;;;32.03;16.13;;;;;;;;;;4992625;28;20027;-65
2021/03/30 05:58:20;;;;;;;31.92;17.08;;;;;;;;;;4992616;28;20049;-66
2021/03/30 06:00:47;;;;;;;37.08;16.20;;;;;;;;;;4991766;28;20482;-67
2021/03/30 06:03:15;;;;;;;31.90;17.38;;;;;;;;;;4992753;28;20464;-66
2021/03/30 06:05:42;;;;;;;29.83;12.63;;;;;;;;;;4992232;28;20181;-67
2021/03/30 06:08:08;;;;;;;29.02;14.30;;;;;;;;;;4992696;28;20022;-66
2021/03/30 06:10:35;;;;;;;24.73;14.25;;;;;;;;;;4975963;28;20046;-67
2021/03/30 06:13:03;;;;;;;31.23;14.25;;;;;;;;;;4975940;28;20089;-66
2021/03/30 06:15:30;;;;;;;25.60;15.25;;;;;;;;;;4979578;28;20049;-66
2021/03/30 06:17:56;;;;;;;26.55;14.90;;;;;;;;;;4996595;28;20038;-66
2021/03/30 06:20:28;;;;;;;24.63;15.70;;;;;;;;;;4990027;28;20482;-68
2021/03/30 06:22:59;;;;;;;32.22;15.60;;;;;;;;;;4977740;28;20090;-66
2021/03/30 06:25:46;;;;;;;31.77;15.77;;;;;;;;;;4990553;28;20027;-67
2021/03/30 06:28:16;;;;;;;22.15;14.52;;;;;;;;;;4987989;28;20030;-68
2021/03/30 06:31:01;;;;;;;25.17;16.00;;;;;;;;;;4988329;28;20023;-68
2021/03/30 06:33:28;;;;;;;27.85;16.00;;;;;;;;;;4991747;28;20456;-61
2021/03/30 06:36:11;;;;;;;28.17;15.38;;;;;;;;;;4982918;28;20568;-68
2021/03/30 06:38:57;;;;;;;25.67;14.85;;;;;;;;;;4989580;28;20026;-67
2021/03/30 06:44:26;;;;;;;27.63;15.63;;;;;;;;;;4995456;28;20073;-66
2021/03/30 06:46:52;;;;;;;24.05;16.60;;;;;;;;;;4994782;28;20105;-67
2021/03/30 06:49:19;;;;;;;34.60;18.92;;;;;;;;;;4985132;28;20104;-67
2021/03/30 06:51:46;;;;;;;31.05;17.42;;;;;;;;;;4989785;28;20423;-69
2021/03/30 06:54:12;;;;;;;30.67;18.50;;;;;;;;;;4991905;28;20062;-69
2021/03/30 06:56:47;;;;;;;34.63;19.67;;;;;;;;;;4993479;28;20014;-66
2021/03/30 06:59:13;;;;;;;30.13;19.10;;;;;;;;;;4992417;28;20034;-70
2021/03/30 07:01:40;;;;;;;43.58;20.38;;;;;;;;;;4992711;28;20025;-68
2021/03/30 07:04:06;;;;;;;37.75;20.63;;;;;;;;;;4993918;28;20023;-65
2021/03/30 07:06:33;;;;;;;36.58;19.15;;;;;;;;;;4990633;28;20058;-66
2021/03/30 07:09:00;;;;;;;32.33;20.13;;;;;;;;;;4991976;28;20377;-66
2021/03/30 07:11:27;;;;;;;39.42;20.50;;;;;;;;;;4977429;28;20122;-67
2021/03/30 07:13:53;;;;;;;39.00;20.05;;;;;;;;;;4976589;28;20030;-67
2021/03/30 07:16:45;;;;;;;43.30;21.30;;;;;;;;;;4976073;28;20019;-68
2021/03/30 07:19:12;;;;;;;39.05;23.40;;;;;;;;;;4972341;28;20039;-66
2021/03/30 07:21:49;;;;;;;30.73;21.80;;;;;;;;;;4975646;28;20049;-66
2021/03/30 07:24:20;;;;;;;37.63;21.95;;;;;;;;;;4975398;28;20037;-67
2021/03/30 07:26:59;;;;;;;41.13;22.40;;;;;;;;;;4988560;28;20033;-66
2021/03/30 07:29:25;;;;;;;;;;;;;;;;;;4995579;28;20026;-66
2021/03/30 07:31:58;;;;;;;35.08;22.40;;;;;;;;;;4984525;28;19914;-67
2021/03/30 07:34:28;;;;;;;36.45;21.30;;;;;;;;;;4993078;28;20508;-67
2021/03/30 07:37:05;;;;;;;35.72;22.02;;;;;;;;;;4994864;28;20038;-66
2021/03/30 07:39:38;;;;;;;43.63;23.23;;;;;;;;;;4994423;28;20030;-66
2021/03/30 07:42:04;;;;;;;36.35;22.75;;;;;;;;;;4993569;28;20045;-67
2021/03/30 07:44:31;;;;;;;35.13;21.70;;;;;;;;;;4991993;28;20370;-64
2021/03/30 07:46:57;;;;;;;35.00;19.88;;;;;;;;;;4986746;28;20090;-66
2021/03/30 07:49:28;;;;;;;32.47;20.60;;;;;;;;;;4988403;28;20045;-66
2021/03/30 07:51:56;;;;;;;36.95;19.65;;;;;;;;;;4982415;28;20046;-67
2021/03/30 07:54:23;;;;;;;25.55;17.75;;;;;;;;;;4992992;28;20018;-66
2021/03/30 07:56:52;;;;;;;31.80;19.35;;;;;;;;;;4977145;28;20030;-67
2021/03/30 07:59:37;;;;;;;31.52;18.50;;;;;;;;;;4976106;28;20110;-67
2021/03/30 08:02:04;;;;;;;32.92;18.67;;;;;;;;;;4976148;28;20034;-67
2021/03/30 08:04:30;;;;;;;30.17;18.83;;;;;;;;;;4976281;28;20027;-67
2021/03/30 08:06:56;;;;;;;28.27;18.00;;;;;;;;;;4979057;28;20145;-66
2021/03/30 08:09:22;;;;;;;30.02;16.92;;;;;;;;;;4992777;28;20025;-66
2021/03/30 08:11:52;;;;;;;30.08;18.77;;;;;;;;;;4993650;28;20562;-67
2021/03/30 08:14:21;;;;;;;27.65;18.20;;;;;;;;;;4981441;28;20030;-67
2021/03/30 08:16:50;;;;;;;28.58;18.13;;;;;;;;;;4992595;28;20034;-66
2021/03/30 08:19:16;;;;;;;;;;;;;;;;;;4994524;28;20023;-66
2021/03/30 08:21:55;;;;;;;32.88;18.10;;;;;;;;;;4993451;28;20265;-67
2021/03/30 08:24:22;;;;;;;35.22;18.95;;;;;;;;;;4993717;28;20050;-66
2021/03/30 08:26:49;;;;;;;34.03;18.05;;;;;;;;;;4994221;28;20033;-67
2021/03/30 08:29:18;;;;;;;37.45;18.77;;;;;;;;;;4993525;28;20030;-66
2021/03/30 08:31:48;;;;;;;30.65;19.02;;;;;;;;;;4992481;28;20038;-69
2021/03/30 08:34:14;;;;;;;28.52;19.77;;;;;;;;;;4992983;28;20018;-68
2021/03/30 08:36:43;;;;;;;27.92;19.02;;;;;;;;;;4993529;28;20045;-66
2021/03/30 08:39:11;;;;;;;26.92;17.60;;;;;;;;;;4992553;28;20044;-66
2021/03/30 08:41:43;;;;;;;29.65;17.27;;;;;;;;;;4993912;28;20065;-68
2021/03/30 08:44:17;;;;;;;27.70;17.17;;;;;;;;;;4993708;28;20088;-66
2021/03/30 08:46:44;;;;;;;26.38;15.98;;;;;;;;;;4993454;28;20431;-67
2021/03/30 08:49:23;;;;;;;27.83;15.00;;;;;;;;;;4992844;28;20054;-66
2021/03/30 08:51:51;;;;;;;23.52;14.18;;;;;;;;;;4992212;28;20521;-67
2021/03/30 08:54:17;;;;;;;26.73;15.88;;;;;;;;;;4993280;28;20553;-67
2021/03/30 08:56:43;;;;;;;26.00;14.63;;;;;;;;;;4993916;28;20030;-67
2021/03/30 08:59:10;;;;;;;28.80;15.32;;;;;;;;;;4993094;28;20544;-67
2021/03/30 09:01:37;;;;;;;28.52;15.18;;;;;;;;;;4993396;28;20045;-69
2021/03/30 09:04:03;;;;;;;26.55;13.43;;;;;;;;;;4992868;28;20054;-66
2021/03/30 09:06:34;;;;;;;21.67;13.85;;;;;;;;;;4992349;28;20026;-69
2021/03/30 09:09:00;;;;;;;21.67;11.98;;;;;;;;;;4992739;28;20535;-66
2021/03/30 09:11:27;;;;;;;27.00;13.70;;;;;;;;;;4993120;28;20033;-67
2021/03/30 09:13:57;;;;;;;25.33;12.30;;;;;;;;;;4993054;28;20050;-68
2021/03/30 09:16:23;;;;;;;20.92;12.95;;;;;;;;;;4992671;28;20053;-67
2021/03/30 09:18:51;;;;;;;19.25;13.13;;;;;;;;;;4992474;28;20042;-68
2021/03/30 09:21:20;;;;;;;26.20;13.57;;;;;;;;;;4993091;28;20361;-68
2021/03/30 09:23:47;;;;;;;19.92;12.07;;;;;;;;;;4992908;28;20515;-67
2021/03/30 09:26:14;;;;;;;18.77;11.88;;;;;;;;;;4991936;28;20034;-68
2021/03/30 09:28:42;;;;;;;19.27;12.48;;;;;;;;;;4992796;28;20022;-67
2021/03/30 09:31:09;;;;;;;31.42;14.68;;;;;;;;;;4992651;28;20408;-68
2021/03/30 09:33:35;;;;;;;23.83;12.77;;;;;;;;;;4993158;28;20065;-67
2021/03/30 09:36:01;;;;;;;23.67;13.32;;;;;;;;;;4993161;28;20067;-67
2021/03/30 09:38:27;;;;;;;22.83;13.10;;;;;;;;;;4992450;28;20480;-67
2021/03/30 09:40:53;;;;;;;19.98;11.35;;;;;;;;;;4992772;28;20031;-67
2021/03/30 09:43:20;;;;;;;17.27;10.77;;;;;;;;;;4992340;28;20542;-67
2021/03/30 09:45:46;;;;;;;22.60;12.38;;;;;;;;;;4992612;28;20033;-67
2021/03/30 09:48:14;;;;;;;22.50;12.23;;;;;;;;;;4990097;28;20053;-64
2021/03/30 09:50:41;;;;;;;18.23;11.60;;;;;;;;;;4980212;28;20026;-66
2021/03/30 09:53:08;;;;;;;17.30;11.02;;;;;;;;;;4992596;28;20164;-65
2021/03/30 09:55:34;;;;;;;14.68;9.32;;;;;;;;;;4992516;28;20433;-66
2021/03/30 09:58:16;;;;;;;20.65;9.07;;;;;;;;;;4992749;28;20030;-66
2021/03/30 10:00:52;;;;;;;18.92;9.35;;;;;;;;;;4986718;28;20105;-66
2021/03/30 10:03:21;;;;;;;20.13;9.52;;;;;;;;;;4985540;28;20029;-66
2021/03/30 10:05:47;;;;;;;13.80;8.73;;;;;;;;;;4992633;28;20264;-66
2021/03/30 10:08:19;;;;;;;16.67;9.80;;;;;;;;;;4992211;28;20093;-67
2021/03/30 10:10:46;;;;;;;13.85;9.32;;;;;;;;;;4992668;28;20037;-66
2021/03/30 10:13:26;;;;;;;17.15;8.77;;;;;;;;;;4991943;28;20097;-66
2021/03/30 10:15:53;;;;;;;14.68;9.07;;;;;;;;;;4990353;28;20041;-67
2021/03/30 10:18:22;;;;;;;15.63;9.52;;;;;;;;;;4992064;28;20026;-67
2021/03/30 10:20:49;;;;;;;14.82;8.40;;;;;;;;;;4992381;28;20022;-68
2021/03/30 10:23:16;;;;;;;15.73;8.40;;;;;;;;;;4992187;28;20357;-67
2021/03/30 10:25:43;;;;;;;14.63;8.73;;;;;;;;;;4992183;28;20113;-66
2021/03/30 10:28:09;;;;;;;16.90;8.77;;;;;;;;;;4992623;28;20018;-66
2021/03/30 10:30:41;;;;;;;19.27;9.80;;;;;;;;;;4992336;28;20022;-67
2021/03/30 10:33:12;;;;;;;17.27;9.25;;;;;;;;;;4991806;28;20034;-65
2021/03/30 10:35:39;;;;;;;22.85;11.63;;;;;;;;;;4992921;28;20019;-66
2021/03/30 10:38:05;;;;;;;20.23;9.35;;;;;;;;;;4991955;28;20026;-66
2021/03/30 10:40:41;;;;;;;17.85;9.85;;;;;;;;;;4992621;28;20026;-66
2021/03/30 10:43:36;;;;;;;16.48;10.38;;;;;;;;;;4992273;28;20264;-67
2021/03/30 10:46:17;;;;;;;16.88;8.50;;;;;;;;;;4953761;28;20093;-68
2021/03/30 10:49:02;;;;;;;17.73;9.05;;;;;;;;;;4971884;28;20071;-74
2021/03/30 10:51:29;;;;;;;17.15;9.02;;;;;;;;;;4971104;28;20041;-73
2021/03/30 10:53:56;;;;;;;17.92;9.55;;;;;;;;;;4970603;28;20031;-70
2021/03/30 10:56:22;;;;;;;15.27;8.10;;;;;;;;;;4971110;28;20035;-70
2021/03/30 10:58:48;;;;;;;13.90;9.00;;;;;;;;;;4972911;28;20161;-58
2021/03/30 11:01:14;;;;;;;14.95;9.90;;;;;;;;;;4974357;28;20050;-65
2021/03/30 11:03:41;;;;;;;14.70;9.70;;;;;;;;;;4973529;28;20035;-64
2021/03/30 11:06:07;;;;;;;19.50;10.10;;;;;;;;;;4973737;28;20027;-64
2021/03/30 11:08:33;;;;;;;18.80;11.88;;;;;;;;;;4973435;28;20061;-59
2021/03/30 11:10:59;;;;;;;21.63;13.20;;;;;;;;;;4973974;28;20061;-61
2021/03/30 11:13:25;;;;;;;24.35;11.95;;;;;;;;;;4973586;28;20045;-64
2021/03/30 11:15:51;;;;;;;16.55;10.60;;;;;;;;;;4973204;28;20493;-63
2021/03/30 11:18:17;;;;;;;15.70;9.02;;;;;;;;;;4967331;28;20552;-62
2021/03/30 11:20:43;;;;;;;13.98;9.15;;;;;;;;;;4969379;28;20114;-62
2021/03/30 11:23:09;;;;;;;15.02;9.30;;;;;;;;;;4976845;28;20042;-61
2021/03/30 11:25:37;;;;;;;11.02;6.78;;;;;;;;;;4990111;28;20105;-59
2021/03/30 11:28:07;;;;;;;13.65;7.85;;;;;;;;;;4988623;28;20144;-59
2021/03/30 11:30:56;;;;;;;18.52;9.30;;;;;;;;;;4989739;28;20157;-70
2021/03/30 11:35:59;;;;;;;19.17;10.07;;;;;;;;;;4995005;28;20380;-70
2021/03/30 11:38:25;;;;;;;19.17;10.32;;;;;;;;;;4994369;28;20030;-56
2021/03/30 11:40:51;;;;;;;12.60;8.48;;;;;;;;;;4994132;28;20423;-72
2021/03/30 11:43:17;;;;;;;12.07;7.53;;;;;;;;;;4985501;28;20046;-71
2021/03/30 11:45:43;;;;;;;12.98;7.90;;;;;;;;;;4990953;28;20080;-74
2021/03/30 11:48:09;;;;;;;10.25;6.05;;;;;;;;;;4994342;28;20038;-72
2021/03/30 11:50:36;;;;;;;9.82;5.50;;;;;;;;;;4994102;28;20512;-74
2021/03/30 11:53:02;;;;;;;10.95;6.30;;;;;;;;;;4987286;28;20049;-73
2021/03/30 11:55:29;;;;;;;12.52;7.68;;;;;;;;;;4989020;28;20042;-75
2021/03/30 11:57:55;;;;;;;17.80;6.93;;;;;;;;;;4995009;28;20121;-73
2021/03/30 12:00:22;;;;;;;14.00;7.32;;;;;;;;;;4992480;28;20022;-73
2021/03/30 12:02:49;;;;;;;11.68;7.00;;;;;;;;;;4994168;28;20034;-75
2021/03/30 12:05:15;;;;;;;10.02;5.22;;;;;;;;;;4994472;28;20472;-74
2021/03/30 12:07:41;;;;;;;10.05;5.43;;;;;;;;;;4994833;28;20022;-75
2021/03/30 12:10:08;;;;;;;10.63;6.13;;;;;;;;;;4993678;28;20053;-75
2021/03/30 12:12:34;;;;;;;14.23;6.28;;;;;;;;;;4994763;28;20073;-75
2021/03/30 12:15:00;;;;;;;9.85;6.22;;;;;;;;;;4994369;28;20061;-75
2021/03/30 12:17:26;;;;;;;9.85;7.45;;;;;;;;;;4994814;28;20476;-75
2021/03/30 12:19:53;;;;;;;11.52;5.97;;;;;;;;;;4994154;28;20027;-75
2021/03/30 12:22:19;;;;;;;10.90;5.82;;;;;;;;;;4994083;28;20050;-74
2021/03/30 12:24:45;;;;;;;8.80;5.78;;;;;;;;;;4992257;28;20027;-75
2021/03/30 12:27:11;;;;;;;11.00;5.63;;;;;;;;;;4993898;28;20101;-74
2021/03/30 12:29:38;;;;;;;10.15;6.10;;;;;;;;;;4994049;28;20026;-74
2021/03/30 12:32:04;;;;;;;8.27;6.35;;;;;;;;;;4991038;28;20106;-73
2021/03/30 12:34:31;;;;;;;12.27;6.68;;;;;;;;;;4993606;28;20026;-74
2021/03/30 12:36:57;;;;;;;10.73;6.88;;;;;;;;;;4990871;28;20041;-75
2021/03/30 12:39:23;;;;;;;12.75;7.53;;;;;;;;;;4994110;28;20057;-74
2021/03/30 12:41:49;;;;;;;12.65;7.40;;;;;;;;;;4994430;28;20496;-71
2021/03/30 12:44:17;;;;;;;11.77;7.80;;;;;;;;;;4994005;28;20022;-74
2021/03/30 12:46:43;;;;;;;10.30;6.45;;;;;;;;;;4992139;28;20049;-73
2021/03/30 12:49:10;;;;;;;9.73;6.45;;;;;;;;;;4993042;28;20038;-73
2021/03/30 12:51:36;;;;;;;11.95;6.72;;;;;;;;;;4993677;28;20022;-74
2021/03/30 12:54:02;;;;;;;11.73;6.90;;;;;;;;;;4992862;28;20033;-74
2021/03/30 12:56:28;;;;;;;29.85;7.25;;;;;;;;;;4993619;28;20015;-75
2021/03/30 12:58:54;;;;;;;13.35;7.70;;;;;;;;;;4992067;28;20065;-73
2021/03/30 13:01:20;;;;;;;14.27;6.55;;;;;;;;;;4993746;28;20053;-74
2021/03/30 13:03:46;;;;;;;19.45;7.40;;;;;;;;;;4993447;28;20026;-74
2021/03/30 13:06:12;;;;;;;12.27;6.50;;;;;;;;;;4994628;28;20073;-74
2021/03/30 13:08:38;;;;;;;10.73;6.18;;;;;;;;;;4995904;28;20041;-72
2021/03/30 13:11:05;;;;;;;10.15;6.60;;;;;;;;;;4993502;28;20018;-74
2021/03/30 13:13:31;;;;;;;11.77;5.97;;;;;;;;;;4992722;28;20030;-73
2021/03/30 13:15:58;;;;;;;9.48;5.50;;;;;;;;;;4991875;28;20049;-72
2021/03/30 13:18:24;;;;;;;10.35;6.05;;;;;;;;;;4990982;28;20518;-72
2021/03/30 13:20:50;;;;;;;10.30;5.05;;;;;;;;;;4989714;28;20042;-73
2021/03/30 13:23:16;;;;;;;10.68;5.18;;;;;;;;;;4991766;28;20040;-73
2021/03/30 13:25:42;;;;;;;9.50;4.72;;;;;;;;;;4989607;28;20048;-73
2021/03/30 13:28:09;;;;;;;10.80;5.38;;;;;;;;;;4989851;28;20057;-73
2021/03/30 13:30:35;;;;;;;10.30;5.15;;;;;;;;;;4986039;28;20401;-71
2021/03/30 13:33:02;;;;;;;10.27;4.63;;;;;;;;;;4979655;28;20027;-73
2021/03/30 13:35:28;;;;;;;11.93;4.97;;;;;;;;;;4992084;28;20053;-74
2021/03/30 13:37:54;;;;;;;12.00;5.57;;;;;;;;;;4986704;28;20042;-72
2021/03/30 13:40:20;;;;;;;6.55;5.00;;;;;;;;;;4988808;28;20022;-74
2021/03/30 13:42:47;;;;;;;10.20;5.13;;;;;;;;;;4991708;28;20508;-72
2021/03/30 13:45:13;;;;;;;11.70;4.95;;;;;;;;;;4992597;28;20018;-73
2021/03/30 13:47:39;;;;;;;9.20;5.93;;;;;;;;;;4992234;28;20656;-71
2021/03/30 13:50:07;;;;;;;9.00;6.55;;;;;;;;;;4991148;28;20138;-72
2021/03/30 13:52:33;;;;;;;12.45;7.07;;;;;;;;;;4992222;28;20473;-74
2021/03/30 13:54:59;;;;;;;15.13;9.13;;;;;;;;;;4992357;28;20022;-74
2021/03/30 13:57:25;;;;;;;14.98;8.73;;;;;;;;;;4990114;28;20047;-75
2021/03/30 13:59:52;;;;;;;13.50;9.02;;;;;;;;;;4990149;28;20054;-74
2021/03/30 14:02:18;;;;;;;16.60;9.05;;;;;;;;;;4992608;28;20011;-74
2021/03/30 14:04:44;;;;;;;15.88;9.13;;;;;;;;;;4992429;28;20084;-74
2021/03/30 14:07:10;;;;;;;11.75;8.38;;;;;;;;;;4992235;28;20038;-73
2021/03/30 14:09:36;;;;;;;17.75;9.07;;;;;;;;;;4992388;28;20034;-74
2021/03/30 14:12:05;;;;;;;13.23;9.10;;;;;;;;;;4990930;28;20045;-74
2021/03/30 14:14:37;;;;;;;20.63;9.98;;;;;;;;;;4992352;28;20027;-74
2021/03/30 14:17:09;;;;;;;14.18;9.65;;;;;;;;;;4991007;28;20041;-72
2021/03/30 14:22:04;;;;;;;19.77;11.63;;;;;;;;;;4980021;28;20469;-74
2021/03/30 14:24:32;;;;;;;17.35;10.45;;;;;;;;;;4983291;28;20023;-75
2021/03/30 14:26:58;;;;;;;;;;;;;;;;;;4992145;28;20117;-75
2021/03/30 14:29:24;;;;;;;14.80;9.48;;;;;;;;;;4980958;28;19956;-75
2021/03/30 14:31:50;;;;;;;14.00;9.80;;;;;;;;;;4978060;28;20035;-75
2021/03/30 14:34:17;;;;;;;14.52;9.35;;;;;;;;;;4985643;28;20023;-75
2021/03/30 14:36:43;;;;;;;17.30;10.00;;;;;;;;;;4995716;28;20026;-74